sensor_id;sensor_type;location;lat;lon;timestamp;temperature;humidity
71879;DHT22;59755;43.834;4.364;2023-04-24T00:00:32;13.50;82.50
71879;DHT22;59755;43.834;4.364;2023-04-24T00:02:57;13.50;82.40
71879;DHT22;59755;43.834;4.364;2023-04-24T00:05:23;13.50;80.90
71879;DHT22;59755;43.834;4.364;2023-04-24T00:07:49;13.40;80.80
71879;DHT22;59755;43.834;4.364;2023-04-24T00:10:18;13.40;81.00
71879;DHT22;59755;43.834;4.364;2023-04-24T00:12:43;13.40;81.10
71879;DHT22;59755;43.834;4.364;2023-04-24T00:15:09;13.40;80.90
71879;DHT22;59755;43.834;4.364;2023-04-24T00:17:35;13.30;81.00
71879;DHT22;59755;43.834;4.364;2023-04-24T00:20:00;13.40;81.00
71879;DHT22;59755;43.834;4.364;2023-04-24T00:22:30;13.30;81.10
71879;DHT22;59755;43.834;4.364;2023-04-24T00:24:55;13.30;81.20
71879;DHT22;59755;43.834;4.364;2023-04-24T00:27:21;13.30;81.00
71879;DHT22;59755;43.834;4.364;2023-04-24T00:29:46;13.30;81.20
71879;DHT22;59755;43.834;4.364;2023-04-24T00:32:12;13.30;81.00
71879;DHT22;59755;43.834;4.364;2023-04-24T00:34:38;13.30;80.90
71879;DHT22;59755;43.834;4.364;2023-04-24T00:37:04;13.30;81.40
71879;DHT22;59755;43.834;4.364;2023-04-24T00:39:29;13.30;81.80
71879;DHT22;59755;43.834;4.364;2023-04-24T00:41:55;13.40;82.10
71879;DHT22;59755;43.834;4.364;2023-04-24T00:44:22;13.30;81.60
71879;DHT22;59755;43.834;4.364;2023-04-24T00:46:48;13.20;82.30
71879;DHT22;59755;43.834;4.364;2023-04-24T00:49:20;13.20;82.20
71879;DHT22;59755;43.834;4.364;2023-04-24T00:51:46;13.20;82.20
71879;DHT22;59755;43.834;4.364;2023-04-24T00:54:12;13.10;82.90
71879;DHT22;59755;43.834;4.364;2023-04-24T00:56:38;13.00;83.30
71879;DHT22;59755;43.834;4.364;2023-04-24T00:59:03;12.90;83.70
71879;DHT22;59755;43.834;4.364;2023-04-24T01:01:29;12.90;83.80
71879;DHT22;59755;43.834;4.364;2023-04-24T01:03:55;12.90;84.40
71879;DHT22;59755;43.834;4.364;2023-04-24T01:06:22;13.00;84.50
71879;DHT22;59755;43.834;4.364;2023-04-24T01:08:48;12.90;83.90
71879;DHT22;59755;43.834;4.364;2023-04-24T01:11:15;12.80;83.50
71879;DHT22;59755;43.834;4.364;2023-04-24T01:13:40;12.90;82.30
71879;DHT22;59755;43.834;4.364;2023-04-24T01:16:06;13.00;81.20
71879;DHT22;59755;43.834;4.364;2023-04-24T01:18:31;13.00;81.10
71879;DHT22;59755;43.834;4.364;2023-04-24T01:20:58;13.00;80.80
71879;DHT22;59755;43.834;4.364;2023-04-24T01:23:24;13.00;80.90
71879;DHT22;59755;43.834;4.364;2023-04-24T01:25:49;12.90;80.50
71879;DHT22;59755;43.834;4.364;2023-04-24T01:28:16;12.90;80.50
71879;DHT22;59755;43.834;4.364;2023-04-24T01:30:42;12.90;80.60
71879;DHT22;59755;43.834;4.364;2023-04-24T01:33:08;12.90;80.60
71879;DHT22;59755;43.834;4.364;2023-04-24T01:35:33;13.00;80.60
71879;DHT22;59755;43.834;4.364;2023-04-24T01:38:01;12.80;81.70
71879;DHT22;59755;43.834;4.364;2023-04-24T01:40:27;12.80;82.20
71879;DHT22;59755;43.834;4.364;2023-04-24T01:42:52;12.90;82.10
71879;DHT22;59755;43.834;4.364;2023-04-24T01:45:18;13.00;81.90
71879;DHT22;59755;43.834;4.364;2023-04-24T01:47:43;13.00;81.90
71879;DHT22;59755;43.834;4.364;2023-04-24T01:50:10;12.90;81.10
71879;DHT22;59755;43.834;4.364;2023-04-24T01:52:36;12.90;81.50
71879;DHT22;59755;43.834;4.364;2023-04-24T01:55:04;12.80;81.20
71879;DHT22;59755;43.834;4.364;2023-04-24T01:57:31;12.80;82.60
71879;DHT22;59755;43.834;4.364;2023-04-24T01:59:57;12.80;81.40
71879;DHT22;59755;43.834;4.364;2023-04-24T02:02:22;12.90;80.70
71879;DHT22;59755;43.834;4.364;2023-04-24T02:04:49;12.90;80.40
71879;DHT22;59755;43.834;4.364;2023-04-24T02:07:15;12.90;80.70
71879;DHT22;59755;43.834;4.364;2023-04-24T02:09:41;12.90;80.30
71879;DHT22;59755;43.834;4.364;2023-04-24T02:12:06;12.80;80.10
71879;DHT22;59755;43.834;4.364;2023-04-24T02:14:32;12.80;79.10
71879;DHT22;59755;43.834;4.364;2023-04-24T02:16:58;12.90;78.50
71879;DHT22;59755;43.834;4.364;2023-04-24T02:19:23;12.90;77.70
71879;DHT22;59755;43.834;4.364;2023-04-24T02:21:49;13.00;77.40
71879;DHT22;59755;43.834;4.364;2023-04-24T02:24:15;13.10;76.50
71879;DHT22;59755;43.834;4.364;2023-04-24T02:26:41;13.10;76.10
71879;DHT22;59755;43.834;4.364;2023-04-24T02:29:06;13.10;75.20
71879;DHT22;59755;43.834;4.364;2023-04-24T02:31:32;13.10;75.00
71879;DHT22;59755;43.834;4.364;2023-04-24T02:33:57;13.20;74.00
71879;DHT22;59755;43.834;4.364;2023-04-24T02:36:23;13.20;73.90
71879;DHT22;59755;43.834;4.364;2023-04-24T02:38:48;13.20;73.70
71879;DHT22;59755;43.834;4.364;2023-04-24T02:41:14;13.20;73.50
71879;DHT22;59755;43.834;4.364;2023-04-24T02:43:40;13.30;73.30
71879;DHT22;59755;43.834;4.364;2023-04-24T02:46:05;13.30;73.20
71879;DHT22;59755;43.834;4.364;2023-04-24T02:48:31;13.30;73.30
71879;DHT22;59755;43.834;4.364;2023-04-24T02:50:56;13.30;72.50
71879;DHT22;59755;43.834;4.364;2023-04-24T02:53:22;13.20;72.70
71879;DHT22;59755;43.834;4.364;2023-04-24T02:55:48;13.30;72.90
71879;DHT22;59755;43.834;4.364;2023-04-24T02:58:14;13.30;73.30
71879;DHT22;59755;43.834;4.364;2023-04-24T03:00:40;13.30;72.90
71879;DHT22;59755;43.834;4.364;2023-04-24T03:03:05;13.30;73.20
71879;DHT22;59755;43.834;4.364;2023-04-24T03:05:32;13.30;73.10
71879;DHT22;59755;43.834;4.364;2023-04-24T03:07:57;13.20;73.30
71879;DHT22;59755;43.834;4.364;2023-04-24T03:10:23;13.20;73.60
71879;DHT22;59755;43.834;4.364;2023-04-24T03:12:49;13.20;74.30
71879;DHT22;59755;43.834;4.364;2023-04-24T03:15:16;13.10;73.70
71879;DHT22;59755;43.834;4.364;2023-04-24T03:17:41;13.10;74.40
71879;DHT22;59755;43.834;4.364;2023-04-24T03:20:07;13.00;74.10
71879;DHT22;59755;43.834;4.364;2023-04-24T03:22:36;13.00;74.40
71879;DHT22;59755;43.834;4.364;2023-04-24T03:25:02;12.90;74.40
71879;DHT22;59755;43.834;4.364;2023-04-24T03:27:29;12.90;74.40
71879;DHT22;59755;43.834;4.364;2023-04-24T03:29:54;13.00;74.10
71879;DHT22;59755;43.834;4.364;2023-04-24T03:32:22;13.00;74.10
71879;DHT22;59755;43.834;4.364;2023-04-24T03:34:48;13.00;75.00
71879;DHT22;59755;43.834;4.364;2023-04-24T03:37:14;13.00;74.40
71879;DHT22;59755;43.834;4.364;2023-04-24T03:39:40;13.00;74.30
71879;DHT22;59755;43.834;4.364;2023-04-24T03:42:06;12.90;75.40
71879;DHT22;59755;43.834;4.364;2023-04-24T03:44:31;12.80;75.30
71879;DHT22;59755;43.834;4.364;2023-04-24T03:46:57;12.70;75.10
71879;DHT22;59755;43.834;4.364;2023-04-24T03:49:23;12.70;74.80
71879;DHT22;59755;43.834;4.364;2023-04-24T03:51:49;12.80;74.50
71879;DHT22;59755;43.834;4.364;2023-04-24T03:54:14;12.80;74.10
71879;DHT22;59755;43.834;4.364;2023-04-24T03:56:40;12.80;73.60
71879;DHT22;59755;43.834;4.364;2023-04-24T03:59:06;12.70;74.00
71879;DHT22;59755;43.834;4.364;2023-04-24T04:01:31;12.80;72.80
71879;DHT22;59755;43.834;4.364;2023-04-24T04:03:57;12.90;73.00
71879;DHT22;59755;43.834;4.364;2023-04-24T04:06:22;12.90;72.20
71879;DHT22;59755;43.834;4.364;2023-04-24T04:08:48;12.90;72.10
71879;DHT22;59755;43.834;4.364;2023-04-24T04:11:13;12.90;71.50
71879;DHT22;59755;43.834;4.364;2023-04-24T04:13:39;12.80;72.00
71879;DHT22;59755;43.834;4.364;2023-04-24T04:16:05;12.80;71.90
71879;DHT22;59755;43.834;4.364;2023-04-24T04:18:30;12.80;72.00
71879;DHT22;59755;43.834;4.364;2023-04-24T04:20:56;12.80;71.70
71879;DHT22;59755;43.834;4.364;2023-04-24T04:23:22;12.70;71.50
71879;DHT22;59755;43.834;4.364;2023-04-24T04:25:48;12.80;70.50
71879;DHT22;59755;43.834;4.364;2023-04-24T04:28:15;12.90;69.60
71879;DHT22;59755;43.834;4.364;2023-04-24T04:30:40;13.00;68.60
71879;DHT22;59755;43.834;4.364;2023-04-24T04:33:06;13.10;67.60
71879;DHT22;59755;43.834;4.364;2023-04-24T04:35:33;13.20;66.90
71879;DHT22;59755;43.834;4.364;2023-04-24T04:37:59;13.30;66.20
71879;DHT22;59755;43.834;4.364;2023-04-24T04:40:24;13.40;66.30
71879;DHT22;59755;43.834;4.364;2023-04-24T04:42:50;13.40;65.90
71879;DHT22;59755;43.834;4.364;2023-04-24T04:45:17;13.40;65.10
71879;DHT22;59755;43.834;4.364;2023-04-24T04:47:43;13.40;65.20
71879;DHT22;59755;43.834;4.364;2023-04-24T04:50:09;13.50;65.80
71879;DHT22;59755;43.834;4.364;2023-04-24T04:52:35;13.60;66.10
71879;DHT22;59755;43.834;4.364;2023-04-24T04:55:01;13.50;65.50
71879;DHT22;59755;43.834;4.364;2023-04-24T04:57:27;13.50;65.60
71879;DHT22;59755;43.834;4.364;2023-04-24T04:59:52;13.50;65.30
71879;DHT22;59755;43.834;4.364;2023-04-24T05:02:18;13.50;65.40
71879;DHT22;59755;43.834;4.364;2023-04-24T05:04:44;13.50;65.60
71879;DHT22;59755;43.834;4.364;2023-04-24T05:07:10;13.60;65.90
71879;DHT22;59755;43.834;4.364;2023-04-24T05:09:36;13.60;66.20
71879;DHT22;59755;43.834;4.364;2023-04-24T05:12:01;13.50;66.70
71879;DHT22;59755;43.834;4.364;2023-04-24T05:14:27;13.40;66.70
71879;DHT22;59755;43.834;4.364;2023-04-24T05:16:53;13.50;66.50
71879;DHT22;59755;43.834;4.364;2023-04-24T05:19:18;13.60;66.80
71879;DHT22;59755;43.834;4.364;2023-04-24T05:21:44;13.70;66.50
71879;DHT22;59755;43.834;4.364;2023-04-24T05:24:09;13.80;66.20
71879;DHT22;59755;43.834;4.364;2023-04-24T05:26:35;13.80;65.70
71879;DHT22;59755;43.834;4.364;2023-04-24T05:29:01;13.80;65.50
71879;DHT22;59755;43.834;4.364;2023-04-24T05:31:26;13.80;65.50
71879;DHT22;59755;43.834;4.364;2023-04-24T05:33:52;13.90;65.50
71879;DHT22;59755;43.834;4.364;2023-04-24T05:36:17;14.00;65.70
71879;DHT22;59755;43.834;4.364;2023-04-24T05:38:43;14.00;65.70
71879;DHT22;59755;43.834;4.364;2023-04-24T05:41:09;14.00;65.50
71879;DHT22;59755;43.834;4.364;2023-04-24T05:43:34;14.00;65.30
71879;DHT22;59755;43.834;4.364;2023-04-24T05:46:00;14.00;66.00
71879;DHT22;59755;43.834;4.364;2023-04-24T05:48:25;14.00;65.90
71879;DHT22;59755;43.834;4.364;2023-04-24T05:50:51;14.00;65.90
71879;DHT22;59755;43.834;4.364;2023-04-24T05:53:18;14.00;66.80
71879;DHT22;59755;43.834;4.364;2023-04-24T05:55:43;13.90;67.30
71879;DHT22;59755;43.834;4.364;2023-04-24T05:58:09;14.00;67.40
71879;DHT22;59755;43.834;4.364;2023-04-24T06:00:35;14.00;67.20
71879;DHT22;59755;43.834;4.364;2023-04-24T06:03:01;14.10;66.80
71879;DHT22;59755;43.834;4.364;2023-04-24T06:05:28;14.10;66.70
71879;DHT22;59755;43.834;4.364;2023-04-24T06:07:55;14.10;66.50
71879;DHT22;59755;43.834;4.364;2023-04-24T06:10:20;14.10;66.90
71879;DHT22;59755;43.834;4.364;2023-04-24T06:12:46;14.10;66.90
71879;DHT22;59755;43.834;4.364;2023-04-24T06:15:12;14.10;66.90
71879;DHT22;59755;43.834;4.364;2023-04-24T06:17:38;14.10;66.80
71879;DHT22;59755;43.834;4.364;2023-04-24T06:20:04;14.10;66.60
71879;DHT22;59755;43.834;4.364;2023-04-24T06:22:31;14.10;66.60
71879;DHT22;59755;43.834;4.364;2023-04-24T06:24:56;14.10;67.40
71879;DHT22;59755;43.834;4.364;2023-04-24T06:27:22;14.10;68.10
71879;DHT22;59755;43.834;4.364;2023-04-24T06:29:47;14.10;68.70
71879;DHT22;59755;43.834;4.364;2023-04-24T06:32:21;14.00;68.90
71879;DHT22;59755;43.834;4.364;2023-04-24T06:34:46;13.90;69.50
71879;DHT22;59755;43.834;4.364;2023-04-24T06:37:12;13.90;70.00
71879;DHT22;59755;43.834;4.364;2023-04-24T06:39:37;13.90;70.50
71879;DHT22;59755;43.834;4.364;2023-04-24T06:42:03;13.80;70.60
71879;DHT22;59755;43.834;4.364;2023-04-24T06:44:28;13.80;71.20
71879;DHT22;59755;43.834;4.364;2023-04-24T06:46:54;13.90;71.20
71879;DHT22;59755;43.834;4.364;2023-04-24T06:49:20;14.00;70.80
71879;DHT22;59755;43.834;4.364;2023-04-24T06:51:46;14.10;70.90
71879;DHT22;59755;43.834;4.364;2023-04-24T06:54:11;14.20;70.90
71879;DHT22;59755;43.834;4.364;2023-04-24T06:56:38;14.30;70.60
71879;DHT22;59755;43.834;4.364;2023-04-24T06:59:03;14.40;69.70
71879;DHT22;59755;43.834;4.364;2023-04-24T07:01:29;14.40;70.30
71879;DHT22;59755;43.834;4.364;2023-04-24T07:03:54;14.30;70.70
71879;DHT22;59755;43.834;4.364;2023-04-24T07:06:20;14.30;70.50
71879;DHT22;59755;43.834;4.364;2023-04-24T07:08:48;14.40;70.60
71879;DHT22;59755;43.834;4.364;2023-04-24T07:11:13;14.40;70.90
71879;DHT22;59755;43.834;4.364;2023-04-24T07:13:39;14.40;70.60
71879;DHT22;59755;43.834;4.364;2023-04-24T07:16:07;14.50;69.70
71879;DHT22;59755;43.834;4.364;2023-04-24T07:18:33;14.60;70.30
71879;DHT22;59755;43.834;4.364;2023-04-24T07:20:59;14.60;70.60
71879;DHT22;59755;43.834;4.364;2023-04-24T07:23:24;14.70;69.10
71879;DHT22;59755;43.834;4.364;2023-04-24T07:25:50;14.80;68.90
71879;DHT22;59755;43.834;4.364;2023-04-24T07:28:16;14.90;69.00
71879;DHT22;59755;43.834;4.364;2023-04-24T07:30:43;15.00;67.90
71879;DHT22;59755;43.834;4.364;2023-04-24T07:33:08;14.90;67.80
71879;DHT22;59755;43.834;4.364;2023-04-24T07:35:36;15.10;67.40
71879;DHT22;59755;43.834;4.364;2023-04-24T07:38:02;15.10;67.60
71879;DHT22;59755;43.834;4.364;2023-04-24T07:40:27;15.10;67.50
71879;DHT22;59755;43.834;4.364;2023-04-24T07:42:53;15.20;67.50
71879;DHT22;59755;43.834;4.364;2023-04-24T07:45:18;15.30;67.70
71879;DHT22;59755;43.834;4.364;2023-04-24T07:47:44;15.20;67.50
71879;DHT22;59755;43.834;4.364;2023-04-24T07:50:11;15.00;67.90
71879;DHT22;59755;43.834;4.364;2023-04-24T07:52:36;15.10;68.10
71879;DHT22;59755;43.834;4.364;2023-04-24T07:55:02;15.20;67.80
71879;DHT22;59755;43.834;4.364;2023-04-24T07:57:28;15.40;67.10
71879;DHT22;59755;43.834;4.364;2023-04-24T07:59:54;15.50;67.30
71879;DHT22;59755;43.834;4.364;2023-04-24T08:02:20;15.70;67.20
71879;DHT22;59755;43.834;4.364;2023-04-24T08:04:51;15.90;66.10
71879;DHT22;59755;43.834;4.364;2023-04-24T08:07:18;15.90;65.20
71879;DHT22;59755;43.834;4.364;2023-04-24T08:09:43;16.00;64.90
71879;DHT22;59755;43.834;4.364;2023-04-24T08:12:09;16.00;64.30
71879;DHT22;59755;43.834;4.364;2023-04-24T08:14:35;16.00;63.40
71879;DHT22;59755;43.834;4.364;2023-04-24T08:17:00;16.10;63.10
71879;DHT22;59755;43.834;4.364;2023-04-24T08:19:26;16.10;62.50
71879;DHT22;59755;43.834;4.364;2023-04-24T08:21:52;16.20;62.50
71879;DHT22;59755;43.834;4.364;2023-04-24T08:24:17;16.20;62.50
71879;DHT22;59755;43.834;4.364;2023-04-24T08:26:43;16.30;60.70
71879;DHT22;59755;43.834;4.364;2023-04-24T08:29:08;16.30;58.80
71879;DHT22;59755;43.834;4.364;2023-04-24T08:31:34;16.40;59.00
71879;DHT22;59755;43.834;4.364;2023-04-24T08:34:00;16.50;59.50
71879;DHT22;59755;43.834;4.364;2023-04-24T08:36:26;16.50;59.90
71879;DHT22;59755;43.834;4.364;2023-04-24T08:38:52;16.60;58.70
71879;DHT22;59755;43.834;4.364;2023-04-24T08:41:18;16.80;58.30
71879;DHT22;59755;43.834;4.364;2023-04-24T08:43:45;17.00;56.20
71879;DHT22;59755;43.834;4.364;2023-04-24T08:46:11;17.10;55.60
71879;DHT22;59755;43.834;4.364;2023-04-24T08:48:38;17.20;52.80
71879;DHT22;59755;43.834;4.364;2023-04-24T08:51:03;17.30;51.10
71879;DHT22;59755;43.834;4.364;2023-04-24T08:53:31;17.30;51.30
71879;DHT22;59755;43.834;4.364;2023-04-24T08:55:57;17.50;51.40
71879;DHT22;59755;43.834;4.364;2023-04-24T08:58:26;17.70;50.10
71879;DHT22;59755;43.834;4.364;2023-04-24T09:00:55;17.80;48.60
71879;DHT22;59755;43.834;4.364;2023-04-24T09:03:21;17.90;48.80
71879;DHT22;59755;43.834;4.364;2023-04-24T09:05:47;18.00;48.00
71879;DHT22;59755;43.834;4.364;2023-04-24T09:08:14;18.10;47.60
71879;DHT22;59755;43.834;4.364;2023-04-24T09:10:41;18.00;47.40
71879;DHT22;59755;43.834;4.364;2023-04-24T09:13:07;18.10;47.50
71879;DHT22;59755;43.834;4.364;2023-04-24T09:15:34;18.10;47.40
71879;DHT22;59755;43.834;4.364;2023-04-24T09:18:00;18.20;47.00
71879;DHT22;59755;43.834;4.364;2023-04-24T09:20:26;18.30;47.30
71879;DHT22;59755;43.834;4.364;2023-04-24T09:22:56;18.40;45.60
71879;DHT22;59755;43.834;4.364;2023-04-24T09:25:22;18.50;45.60
71879;DHT22;59755;43.834;4.364;2023-04-24T09:27:48;18.60;46.10
71879;DHT22;59755;43.834;4.364;2023-04-24T09:30:14;18.60;44.90
71879;DHT22;59755;43.834;4.364;2023-04-24T09:32:46;18.70;44.30
71879;DHT22;59755;43.834;4.364;2023-04-24T09:35:12;18.70;42.00
71879;DHT22;59755;43.834;4.364;2023-04-24T09:37:41;18.80;42.60
71879;DHT22;59755;43.834;4.364;2023-04-24T09:40:08;18.80;42.20
71879;DHT22;59755;43.834;4.364;2023-04-24T09:42:33;18.90;42.70
71879;DHT22;59755;43.834;4.364;2023-04-24T09:44:59;18.90;42.60
71879;DHT22;59755;43.834;4.364;2023-04-24T09:47:25;19.10;42.60
71879;DHT22;59755;43.834;4.364;2023-04-24T09:49:50;19.20;42.00
71879;DHT22;59755;43.834;4.364;2023-04-24T09:52:22;19.30;42.40
71879;DHT22;59755;43.834;4.364;2023-04-24T09:54:53;19.50;43.10
71879;DHT22;59755;43.834;4.364;2023-04-24T09:57:19;19.60;42.60
71879;DHT22;59755;43.834;4.364;2023-04-24T09:59:45;19.50;42.00
71879;DHT22;59755;43.834;4.364;2023-04-24T10:02:17;19.50;42.10
71879;DHT22;59755;43.834;4.364;2023-04-24T10:04:53;19.50;41.70
71879;DHT22;59755;43.834;4.364;2023-04-24T10:07:19;19.60;41.70
71879;DHT22;59755;43.834;4.364;2023-04-24T10:09:44;19.60;41.00
71879;DHT22;59755;43.834;4.364;2023-04-24T10:12:10;19.80;41.00
71879;DHT22;59755;43.834;4.364;2023-04-24T10:14:36;20.00;40.80
71879;DHT22;59755;43.834;4.364;2023-04-24T10:17:01;19.90;41.00
71879;DHT22;59755;43.834;4.364;2023-04-24T10:19:28;20.00;40.30
71879;DHT22;59755;43.834;4.364;2023-04-24T10:21:54;20.20;39.80
71879;DHT22;59755;43.834;4.364;2023-04-24T10:24:21;20.50;40.40
71879;DHT22;59755;43.834;4.364;2023-04-24T10:26:47;20.80;39.90
71879;DHT22;59755;43.834;4.364;2023-04-24T10:29:14;21.10;38.90
71879;DHT22;59755;43.834;4.364;2023-04-24T10:31:40;21.20;38.20
71879;DHT22;59755;43.834;4.364;2023-04-24T10:34:07;21.00;38.40
71879;DHT22;59755;43.834;4.364;2023-04-24T10:36:33;21.60;38.20
71879;DHT22;59755;43.834;4.364;2023-04-24T10:39:03;22.00;37.60
71879;DHT22;59755;43.834;4.364;2023-04-24T10:41:31;22.20;37.10
71879;DHT22;59755;43.834;4.364;2023-04-24T10:44:07;22.70;36.30
71879;DHT22;59755;43.834;4.364;2023-04-24T10:46:33;23.10;35.90
71879;DHT22;59755;43.834;4.364;2023-04-24T10:48:59;23.60;34.90
71879;DHT22;59755;43.834;4.364;2023-04-24T10:51:45;23.50;34.60
71879;DHT22;59755;43.834;4.364;2023-04-24T10:56:49;24.20;33.20
71879;DHT22;59755;43.834;4.364;2023-04-24T10:59:23;25.00;32.30
71879;DHT22;59755;43.834;4.364;2023-04-24T11:01:53;25.70;31.60
71879;DHT22;59755;43.834;4.364;2023-04-24T11:04:28;26.60;30.20
71879;DHT22;59755;43.834;4.364;2023-04-24T11:06:54;27.60;29.20
71879;DHT22;59755;43.834;4.364;2023-04-24T11:09:20;28.00;28.60
71879;DHT22;59755;43.834;4.364;2023-04-24T11:11:46;27.00;29.50
71879;DHT22;59755;43.834;4.364;2023-04-24T11:14:15;26.40;30.30
71879;DHT22;59755;43.834;4.364;2023-04-24T11:21:38;27.30;29.10
71879;DHT22;59755;43.834;4.364;2023-04-24T11:26:50;25.20;29.60
71879;DHT22;59755;43.834;4.364;2023-04-24T11:29:16;25.50;28.50
71879;DHT22;59755;43.834;4.364;2023-04-24T11:31:44;26.10;28.30
71879;DHT22;59755;43.834;4.364;2023-04-24T11:34:15;27.00;27.10
71879;DHT22;59755;43.834;4.364;2023-04-24T11:36:45;28.10;25.70
71879;DHT22;59755;43.834;4.364;2023-04-24T11:39:11;28.60;25.70
71879;DHT22;59755;43.834;4.364;2023-04-24T11:41:37;29.20;25.10
71879;DHT22;59755;43.834;4.364;2023-04-24T11:46:29;29.90;24.80
71879;DHT22;59755;43.834;4.364;2023-04-24T11:48:55;29.50;24.80
71879;DHT22;59755;43.834;4.364;2023-04-24T11:51:25;29.20;24.80
71879;DHT22;59755;43.834;4.364;2023-04-24T11:53:52;29.30;25.00
71879;DHT22;59755;43.834;4.364;2023-04-24T11:56:18;30.00;25.00
71879;DHT22;59755;43.834;4.364;2023-04-24T11:58:44;30.40;24.20
71879;DHT22;59755;43.834;4.364;2023-04-24T12:01:11;29.80;24.10
71879;DHT22;59755;43.834;4.364;2023-04-24T12:03:36;30.30;23.90
71879;DHT22;59755;43.834;4.364;2023-04-24T12:06:05;30.50;23.90
71879;DHT22;59755;43.834;4.364;2023-04-24T12:08:33;28.40;24.50
71879;DHT22;59755;43.834;4.364;2023-04-24T12:10:59;27.30;25.50
71879;DHT22;59755;43.834;4.364;2023-04-24T12:13:26;27.40;26.00
71879;DHT22;59755;43.834;4.364;2023-04-24T12:15:52;26.80;26.30
71879;DHT22;59755;43.834;4.364;2023-04-24T12:18:17;26.60;26.70
71879;DHT22;59755;43.834;4.364;2023-04-24T12:20:43;25.70;27.50
71879;DHT22;59755;43.834;4.364;2023-04-24T12:23:09;25.30;28.20
71879;DHT22;59755;43.834;4.364;2023-04-24T12:25:34;24.90;28.80
71879;DHT22;59755;43.834;4.364;2023-04-24T12:30:29;25.00;29.10
71879;DHT22;59755;43.834;4.364;2023-04-24T12:32:56;25.00;29.30
71879;DHT22;59755;43.834;4.364;2023-04-24T12:35:24;25.10;29.20
71879;DHT22;59755;43.834;4.364;2023-04-24T12:37:50;24.90;29.10
71879;DHT22;59755;43.834;4.364;2023-04-24T12:40:16;24.60;29.30
71879;DHT22;59755;43.834;4.364;2023-04-24T12:42:43;24.20;29.50
71879;DHT22;59755;43.834;4.364;2023-04-24T12:45:09;24.10;30.00
71879;DHT22;59755;43.834;4.364;2023-04-24T12:47:34;23.90;30.60
71879;DHT22;59755;43.834;4.364;2023-04-24T12:50:01;23.50;31.30
71879;DHT22;59755;43.834;4.364;2023-04-24T12:52:28;23.30;31.50
71879;DHT22;59755;43.834;4.364;2023-04-24T12:54:54;23.20;31.70
71879;DHT22;59755;43.834;4.364;2023-04-24T12:57:20;23.50;31.10
71879;DHT22;59755;43.834;4.364;2023-04-24T12:59:46;23.60;30.70
71879;DHT22;59755;43.834;4.364;2023-04-24T13:02:12;22.90;30.90
71879;DHT22;59755;43.834;4.364;2023-04-24T13:04:37;22.60;31.70
71879;DHT22;59755;43.834;4.364;2023-04-24T13:07:03;22.80;32.00
71879;DHT22;59755;43.834;4.364;2023-04-24T13:09:29;22.90;31.40
71879;DHT22;59755;43.834;4.364;2023-04-24T13:11:55;23.00;31.50
71879;DHT22;59755;43.834;4.364;2023-04-24T13:14:22;23.30;30.70
71879;DHT22;59755;43.834;4.364;2023-04-24T13:16:47;23.30;30.60
71879;DHT22;59755;43.834;4.364;2023-04-24T13:19:13;23.10;31.00
71879;DHT22;59755;43.834;4.364;2023-04-24T13:21:39;23.20;30.90
71879;DHT22;59755;43.834;4.364;2023-04-24T13:24:04;23.30;30.70
71879;DHT22;59755;43.834;4.364;2023-04-24T13:26:31;23.40;30.00
71879;DHT22;59755;43.834;4.364;2023-04-24T13:28:56;23.40;30.10
71879;DHT22;59755;43.834;4.364;2023-04-24T13:31:22;23.40;29.10
71879;DHT22;59755;43.834;4.364;2023-04-24T13:33:47;23.50;29.50
71879;DHT22;59755;43.834;4.364;2023-04-24T13:36:13;23.60;29.60
71879;DHT22;59755;43.834;4.364;2023-04-24T13:38:38;23.80;29.80
71879;DHT22;59755;43.834;4.364;2023-04-24T13:41:04;24.00;29.60
71879;DHT22;59755;43.834;4.364;2023-04-24T13:43:30;23.90;30.50
71879;DHT22;59755;43.834;4.364;2023-04-24T13:45:55;23.60;30.10
71879;DHT22;59755;43.834;4.364;2023-04-24T13:48:21;23.30;29.60
71879;DHT22;59755;43.834;4.364;2023-04-24T13:50:46;23.10;30.10
71879;DHT22;59755;43.834;4.364;2023-04-24T13:53:13;22.80;30.20
71879;DHT22;59755;43.834;4.364;2023-04-24T13:55:39;22.80;30.50
71879;DHT22;59755;43.834;4.364;2023-04-24T13:58:05;22.90;30.40
71879;DHT22;59755;43.834;4.364;2023-04-24T14:00:31;23.10;30.20
71879;DHT22;59755;43.834;4.364;2023-04-24T14:02:57;23.40;29.70
71879;DHT22;59755;43.834;4.364;2023-04-24T14:05:22;23.80;29.70
71879;DHT22;59755;43.834;4.364;2023-04-24T14:07:48;23.60;29.40
71879;DHT22;59755;43.834;4.364;2023-04-24T14:10:14;23.30;29.80
71879;DHT22;59755;43.834;4.364;2023-04-24T14:12:39;23.40;29.90
71879;DHT22;59755;43.834;4.364;2023-04-24T14:15:05;23.50;29.70
71879;DHT22;59755;43.834;4.364;2023-04-24T14:17:31;23.40;29.60
71879;DHT22;59755;43.834;4.364;2023-04-24T14:19:57;23.30;30.00
71879;DHT22;59755;43.834;4.364;2023-04-24T14:22:25;23.10;30.40
71879;DHT22;59755;43.834;4.364;2023-04-24T14:24:50;22.70;30.30
71879;DHT22;59755;43.834;4.364;2023-04-24T14:27:16;22.40;30.50
71879;DHT22;59755;43.834;4.364;2023-04-24T14:29:41;22.10;31.00
71879;DHT22;59755;43.834;4.364;2023-04-24T14:32:07;22.00;31.30
71879;DHT22;59755;43.834;4.364;2023-04-24T14:34:34;22.00;31.60
71879;DHT22;59755;43.834;4.364;2023-04-24T14:37:00;21.80;31.60
71879;DHT22;59755;43.834;4.364;2023-04-24T14:39:25;21.70;31.80
71879;DHT22;59755;43.834;4.364;2023-04-24T14:41:51;21.70;31.20
71879;DHT22;59755;43.834;4.364;2023-04-24T14:44:16;21.80;31.10
71879;DHT22;59755;43.834;4.364;2023-04-24T14:46:42;21.90;31.20
71879;DHT22;59755;43.834;4.364;2023-04-24T14:49:08;21.90;31.90
71879;DHT22;59755;43.834;4.364;2023-04-24T14:51:35;21.90;31.50
71879;DHT22;59755;43.834;4.364;2023-04-24T14:54:01;22.00;31.30
71879;DHT22;59755;43.834;4.364;2023-04-24T14:56:26;21.80;31.50
71879;DHT22;59755;43.834;4.364;2023-04-24T14:58:52;21.80;31.80
71879;DHT22;59755;43.834;4.364;2023-04-24T15:01:18;21.60;32.50
71879;DHT22;59755;43.834;4.364;2023-04-24T15:03:44;21.40;32.30
71879;DHT22;59755;43.834;4.364;2023-04-24T15:06:09;21.50;32.70
71879;DHT22;59755;43.834;4.364;2023-04-24T15:08:35;21.50;32.70
71879;DHT22;59755;43.834;4.364;2023-04-24T15:11:00;21.60;32.70
71879;DHT22;59755;43.834;4.364;2023-04-24T15:13:26;21.60;32.50
71879;DHT22;59755;43.834;4.364;2023-04-24T15:15:52;21.40;32.20
71879;DHT22;59755;43.834;4.364;2023-04-24T15:18:17;21.20;32.20
71879;DHT22;59755;43.834;4.364;2023-04-24T15:20:43;21.00;32.50
71879;DHT22;59755;43.834;4.364;2023-04-24T15:23:09;20.90;32.70
71879;DHT22;59755;43.834;4.364;2023-04-24T15:25:35;20.80;33.30
71879;DHT22;59755;43.834;4.364;2023-04-24T15:28:00;20.70;33.40
71879;DHT22;59755;43.834;4.364;2023-04-24T15:30:26;20.70;33.70
71879;DHT22;59755;43.834;4.364;2023-04-24T15:32:52;20.80;33.70
71879;DHT22;59755;43.834;4.364;2023-04-24T15:35:17;20.70;33.50
71879;DHT22;59755;43.834;4.364;2023-04-24T15:37:43;20.60;33.70